Etusivu
METAR-TAF:

METAR-TAF

Lentoasemat :

Tongatapu, Tonga

Leveyspiiri: 21-14S, Pituuspiiri: 175-09W, korkeus merenpinnasta: 38 m

Tämänhetkinen sää

Tämä raportti tehtiin 39 minuuttia sitten, kello 19.00 UTC
Tuuli 8 kn idästä/kaakosta
Lämpötila 23°C
Kosteus 69%
Ilmanpaine 1018 hPa
Näkyvyys 10 km tai enemmän
Muutamia pilviä 1600 ft:n korkeudessa
Hajonneita pilviä 10000 ft:n korkeudessa

METAR: NFTF 211900Z 11008KT 9999 FEW016 BKN100 23/17 Q1018

Aika: 08:39 (19:39 UTC)

Sääennuste

Tämä raportti tehtiin 2 tuntia ja 28 minuuttia sitten, kello 17.11 UTC
Ennuste voimassa 21. päivästä klo 18 UTC - 22. päivään klo 18 UTC
Tuuli 7 kn idästä/kaakosta
Näkyvyys 10 km tai enemmän
Muutamia pilviä 1600 ft:n korkeudessa
Hajonneita pilviä 3000 ft:n korkeudessa

TAF: NFTF 211711Z 2118/2218 11007KT 9999 FEW016 BKN030

Säähavainnot ja -ennusteet yli 4000 lentoasemalta (METAR- ja TAF-raportit).

Käytössä olevat sääasemat on merkitty karttaan keltaisilla ja punaisilla pisteillä.

Aseta hiiri pisteen päälle nähdäksesi sääaseman nimen.

Klikkaa sitten nähdäksesi säähavainnot ja -ennusteet.

Kartan vaihtaminen: klikkaa mustalla rastilla varustettuja vihreitä pisteitä, niin voit zoomata sisään; viivalla varustettua vihreää pistettä, niin voit zoomata ulos tai vihreitä nuolia, niin pääset viereisille kartoille.


METAR-TAF: